sensor_id;sensor_type;location;lat;lon;timestamp;P1;durP1;ratioP1;P2;durP2;ratioP2
30062;SDS011;16889;67.864;24.990;2023-06-14T00:00:53;2.10;;;1.02;;
30062;SDS011;16889;67.864;24.990;2023-06-14T00:05:42;5.75;;;1.02;;
30062;SDS011;16889;67.864;24.990;2023-06-14T00:10:28;1.52;;;0.93;;
30062;SDS011;16889;67.864;24.990;2023-06-14T00:15:16;1.48;;;1.02;;
30062;SDS011;16889;67.864;24.990;2023-06-14T00:20:03;1.55;;;0.90;;
30062;SDS011;16889;67.864;24.990;2023-06-14T00:24:52;3.97;;;1.38;;
30062;SDS011;16889;67.864;24.990;2023-06-14T00:29:38;1.90;;;1.00;;
30062;SDS011;16889;67.864;24.990;2023-06-14T00:34:24;5.22;;;1.20;;
30062;SDS011;16889;67.864;24.990;2023-06-14T00:39:10;2.30;;;1.05;;
30062;SDS011;16889;67.864;24.990;2023-06-14T00:43:57;2.45;;;1.23;;
30062;SDS011;16889;67.864;24.990;2023-06-14T00:48:43;2.25;;;0.80;;
30062;SDS011;16889;67.864;24.990;2023-06-14T00:53:30;2.58;;;0.88;;
30062;SDS011;16889;67.864;24.990;2023-06-14T00:58:19;1.95;;;1.00;;
30062;SDS011;16889;67.864;24.990;2023-06-14T01:03:07;2.28;;;1.00;;
30062;SDS011;16889;67.864;24.990;2023-06-14T01:13:02;4.38;;;1.10;;
30062;SDS011;16889;67.864;24.990;2023-06-14T01:18:03;1.45;;;0.70;;
30062;SDS011;16889;67.864;24.990;2023-06-14T01:22:51;2.10;;;1.05;;
30062;SDS011;16889;67.864;24.990;2023-06-14T01:27:40;1.50;;;1.00;;
30062;SDS011;16889;67.864;24.990;2023-06-14T01:32:26;2.22;;;1.20;;
30062;SDS011;16889;67.864;24.990;2023-06-14T01:37:13;2.37;;;1.30;;
30062;SDS011;16889;67.864;24.990;2023-06-14T01:42:01;3.57;;;1.10;;
30062;SDS011;16889;67.864;24.990;2023-06-14T01:46:47;7.43;;;1.65;;
30062;SDS011;16889;67.864;24.990;2023-06-14T01:51:34;4.57;;;1.17;;
30062;SDS011;16889;67.864;24.990;2023-06-14T01:56:20;13.32;;;1.40;;
30062;SDS011;16889;67.864;24.990;2023-06-14T02:01:06;2.53;;;1.02;;
30062;SDS011;16889;67.864;24.990;2023-06-14T02:05:53;3.20;;;1.10;;
30062;SDS011;16889;67.864;24.990;2023-06-14T02:10:40;1.80;;;0.87;;
30062;SDS011;16889;67.864;24.990;2023-06-14T02:15:26;2.60;;;1.15;;
30062;SDS011;16889;67.864;24.990;2023-06-14T02:20:18;3.67;;;1.35;;
30062;SDS011;16889;67.864;24.990;2023-06-14T02:25:05;4.13;;;1.33;;
30062;SDS011;16889;67.864;24.990;2023-06-14T02:29:52;4.37;;;1.40;;
30062;SDS011;16889;67.864;24.990;2023-06-14T02:34:38;5.82;;;1.42;;
30062;SDS011;16889;67.864;24.990;2023-06-14T02:39:26;6.28;;;1.50;;
30062;SDS011;16889;67.864;24.990;2023-06-14T02:44:13;5.82;;;1.65;;
30062;SDS011;16889;67.864;24.990;2023-06-14T02:49:00;5.65;;;1.60;;
30062;SDS011;16889;67.864;24.990;2023-06-14T02:53:46;5.72;;;1.75;;
30062;SDS011;16889;67.864;24.990;2023-06-14T02:58:32;5.80;;;1.58;;
30062;SDS011;16889;67.864;24.990;2023-06-14T03:03:18;5.53;;;1.70;;
30062;SDS011;16889;67.864;24.990;2023-06-14T03:08:06;4.93;;;1.55;;
30062;SDS011;16889;67.864;24.990;2023-06-14T03:12:53;4.18;;;1.92;;
30062;SDS011;16889;67.864;24.990;2023-06-14T03:17:39;4.65;;;1.60;;
30062;SDS011;16889;67.864;24.990;2023-06-14T03:22:25;6.45;;;2.00;;
30062;SDS011;16889;67.864;24.990;2023-06-14T03:27:11;7.00;;;1.80;;
30062;SDS011;16889;67.864;24.990;2023-06-14T03:31:58;7.47;;;1.73;;
30062;SDS011;16889;67.864;24.990;2023-06-14T03:36:45;5.75;;;1.60;;
30062;SDS011;16889;67.864;24.990;2023-06-14T03:41:31;7.38;;;2.00;;
30062;SDS011;16889;67.864;24.990;2023-06-14T03:46:17;4.53;;;1.63;;
30062;SDS011;16889;67.864;24.990;2023-06-14T03:51:03;5.50;;;1.70;;
30062;SDS011;16889;67.864;24.990;2023-06-14T03:55:50;5.05;;;1.60;;
30062;SDS011;16889;67.864;24.990;2023-06-14T04:00:39;10.18;;;1.98;;
30062;SDS011;16889;67.864;24.990;2023-06-14T04:05:25;7.93;;;2.00;;
30062;SDS011;16889;67.864;24.990;2023-06-14T04:10:14;4.10;;;1.50;;
30062;SDS011;16889;67.864;24.990;2023-06-14T04:15:01;6.70;;;1.90;;
30062;SDS011;16889;67.864;24.990;2023-06-14T04:19:47;5.18;;;1.77;;
30062;SDS011;16889;67.864;24.990;2023-06-14T04:24:33;6.50;;;1.67;;
30062;SDS011;16889;67.864;24.990;2023-06-14T04:29:19;5.38;;;1.80;;
30062;SDS011;16889;67.864;24.990;2023-06-14T04:34:06;4.80;;;1.50;;
30062;SDS011;16889;67.864;24.990;2023-06-14T04:38:52;5.03;;;1.70;;
30062;SDS011;16889;67.864;24.990;2023-06-14T04:43:39;6.10;;;1.90;;
30062;SDS011;16889;67.864;24.990;2023-06-14T04:48:25;6.28;;;1.88;;
30062;SDS011;16889;67.864;24.990;2023-06-14T04:53:11;7.22;;;1.95;;
30062;SDS011;16889;67.864;24.990;2023-06-14T04:57:57;5.90;;;1.75;;
30062;SDS011;16889;67.864;24.990;2023-06-14T05:02:45;4.90;;;1.70;;
30062;SDS011;16889;67.864;24.990;2023-06-14T05:07:32;6.73;;;1.50;;
30062;SDS011;16889;67.864;24.990;2023-06-14T05:12:18;5.13;;;1.52;;
30062;SDS011;16889;67.864;24.990;2023-06-14T05:17:05;5.72;;;1.88;;
30062;SDS011;16889;67.864;24.990;2023-06-14T05:21:52;5.80;;;1.90;;
30062;SDS011;16889;67.864;24.990;2023-06-14T05:26:38;4.83;;;1.60;;
30062;SDS011;16889;67.864;24.990;2023-06-14T05:31:24;5.15;;;1.77;;
30062;SDS011;16889;67.864;24.990;2023-06-14T05:36:10;4.83;;;1.90;;
30062;SDS011;16889;67.864;24.990;2023-06-14T05:40:56;7.07;;;1.85;;
30062;SDS011;16889;67.864;24.990;2023-06-14T05:45:42;6.05;;;1.90;;
30062;SDS011;16889;67.864;24.990;2023-06-14T05:50:29;7.13;;;2.05;;
30062;SDS011;16889;67.864;24.990;2023-06-14T05:55:16;7.07;;;1.83;;
30062;SDS011;16889;67.864;24.990;2023-06-14T06:00:02;5.45;;;2.10;;
30062;SDS011;16889;67.864;24.990;2023-06-14T06:04:59;10.68;;;2.05;;
30062;SDS011;16889;67.864;24.990;2023-06-14T06:09:45;4.82;;;1.90;;
30062;SDS011;16889;67.864;24.990;2023-06-14T06:14:31;5.20;;;1.90;;
30062;SDS011;16889;67.864;24.990;2023-06-14T06:19:17;7.85;;;2.10;;
30062;SDS011;16889;67.864;24.990;2023-06-14T06:24:04;4.88;;;1.80;;
30062;SDS011;16889;67.864;24.990;2023-06-14T06:28:50;8.63;;;2.03;;
30062;SDS011;16889;67.864;24.990;2023-06-14T06:33:37;7.45;;;1.85;;
30062;SDS011;16889;67.864;24.990;2023-06-14T06:38:24;5.28;;;2.00;;
30062;SDS011;16889;67.864;24.990;2023-06-14T06:43:10;5.18;;;2.08;;
30062;SDS011;16889;67.864;24.990;2023-06-14T06:48:01;5.65;;;1.70;;
30062;SDS011;16889;67.864;24.990;2023-06-14T06:52:47;5.60;;;2.00;;
30062;SDS011;16889;67.864;24.990;2023-06-14T06:57:34;6.03;;;2.08;;
30062;SDS011;16889;67.864;24.990;2023-06-14T07:02:20;5.70;;;2.00;;
30062;SDS011;16889;67.864;24.990;2023-06-14T07:07:06;5.38;;;1.90;;
30062;SDS011;16889;67.864;24.990;2023-06-14T07:11:54;6.20;;;2.03;;
30062;SDS011;16889;67.864;24.990;2023-06-14T07:16:40;8.27;;;2.10;;
30062;SDS011;16889;67.864;24.990;2023-06-14T07:21:26;6.20;;;2.13;;
30062;SDS011;16889;67.864;24.990;2023-06-14T07:26:12;5.93;;;2.38;;
30062;SDS011;16889;67.864;24.990;2023-06-14T07:30:58;4.13;;;2.03;;
30062;SDS011;16889;67.864;24.990;2023-06-14T07:35:44;6.15;;;2.70;;
30062;SDS011;16889;67.864;24.990;2023-06-14T07:40:31;5.50;;;2.60;;
30062;SDS011;16889;67.864;24.990;2023-06-14T07:45:17;6.28;;;2.30;;
30062;SDS011;16889;67.864;24.990;2023-06-14T07:50:04;7.10;;;2.55;;
30062;SDS011;16889;67.864;24.990;2023-06-14T07:54:51;7.28;;;2.47;;
30062;SDS011;16889;67.864;24.990;2023-06-14T07:59:37;7.35;;;2.40;;
30062;SDS011;16889;67.864;24.990;2023-06-14T08:04:23;6.43;;;2.75;;
30062;SDS011;16889;67.864;24.990;2023-06-14T08:09:10;6.97;;;2.67;;
30062;SDS011;16889;67.864;24.990;2023-06-14T08:13:56;5.00;;;2.28;;
30062;SDS011;16889;67.864;24.990;2023-06-14T08:18:42;8.20;;;2.53;;
30062;SDS011;16889;67.864;24.990;2023-06-14T08:23:28;5.07;;;2.33;;
30062;SDS011;16889;67.864;24.990;2023-06-14T08:28:14;4.68;;;2.50;;
30062;SDS011;16889;67.864;24.990;2023-06-14T08:33:00;7.57;;;2.15;;
30062;SDS011;16889;67.864;24.990;2023-06-14T08:37:46;8.05;;;2.78;;
30062;SDS011;16889;67.864;24.990;2023-06-14T08:42:32;4.80;;;2.17;;
30062;SDS011;16889;67.864;24.990;2023-06-14T08:52:06;7.60;;;2.30;;
30062;SDS011;16889;67.864;24.990;2023-06-14T08:56:58;4.78;;;2.38;;
30062;SDS011;16889;67.864;24.990;2023-06-14T09:01:45;7.30;;;2.47;;
30062;SDS011;16889;67.864;24.990;2023-06-14T09:06:31;5.78;;;2.47;;
30062;SDS011;16889;67.864;24.990;2023-06-14T09:11:18;5.93;;;2.67;;
30062;SDS011;16889;67.864;24.990;2023-06-14T09:16:05;5.15;;;2.70;;
30062;SDS011;16889;67.864;24.990;2023-06-14T09:20:54;6.93;;;2.80;;
30062;SDS011;16889;67.864;24.990;2023-06-14T09:25:43;9.57;;;2.55;;
30062;SDS011;16889;67.864;24.990;2023-06-14T09:30:31;6.65;;;2.58;;
30062;SDS011;16889;67.864;24.990;2023-06-14T09:35:17;7.43;;;2.40;;
30062;SDS011;16889;67.864;24.990;2023-06-14T09:40:03;4.28;;;2.20;;
30062;SDS011;16889;67.864;24.990;2023-06-14T09:44:50;5.50;;;2.38;;
30062;SDS011;16889;67.864;24.990;2023-06-14T09:49:37;5.22;;;2.55;;
30062;SDS011;16889;67.864;24.990;2023-06-14T09:54:24;7.90;;;2.40;;
30062;SDS011;16889;67.864;24.990;2023-06-14T09:59:12;4.38;;;2.20;;
30062;SDS011;16889;67.864;24.990;2023-06-14T10:04:00;6.47;;;2.60;;
30062;SDS011;16889;67.864;24.990;2023-06-14T10:08:55;5.47;;;2.50;;
30062;SDS011;16889;67.864;24.990;2023-06-14T10:13:44;6.80;;;2.47;;
30062;SDS011;16889;67.864;24.990;2023-06-14T10:18:51;7.85;;;2.70;;
30062;SDS011;16889;67.864;24.990;2023-06-14T10:23:45;5.35;;;2.30;;
30062;SDS011;16889;67.864;24.990;2023-06-14T10:28:32;7.90;;;2.63;;
30062;SDS011;16889;67.864;24.990;2023-06-14T10:33:22;3.95;;;2.08;;
30062;SDS011;16889;67.864;24.990;2023-06-14T10:38:08;5.05;;;2.33;;
30062;SDS011;16889;67.864;24.990;2023-06-14T10:42:56;4.10;;;2.55;;
30062;SDS011;16889;67.864;24.990;2023-06-14T10:47:42;4.55;;;2.60;;
30062;SDS011;16889;67.864;24.990;2023-06-14T10:52:28;5.57;;;2.42;;
30062;SDS011;16889;67.864;24.990;2023-06-14T10:57:15;5.47;;;2.60;;
30062;SDS011;16889;67.864;24.990;2023-06-14T11:07:10;8.15;;;2.95;;
30062;SDS011;16889;67.864;24.990;2023-06-14T11:12:10;5.55;;;2.83;;
30062;SDS011;16889;67.864;24.990;2023-06-14T11:16:57;6.47;;;2.88;;
30062;SDS011;16889;67.864;24.990;2023-06-14T11:21:49;13.40;;;3.00;;
30062;SDS011;16889;67.864;24.990;2023-06-14T11:26:37;6.05;;;3.00;;
30062;SDS011;16889;67.864;24.990;2023-06-14T11:31:23;6.80;;;3.30;;
30062;SDS011;16889;67.864;24.990;2023-06-14T11:36:10;6.57;;;3.17;;
30062;SDS011;16889;67.864;24.990;2023-06-14T11:40:59;8.55;;;3.40;;
30062;SDS011;16889;67.864;24.990;2023-06-14T11:45:47;9.02;;;3.00;;
30062;SDS011;16889;67.864;24.990;2023-06-14T11:50:37;5.50;;;3.22;;
30062;SDS011;16889;67.864;24.990;2023-06-14T11:55:24;8.30;;;3.53;;
30062;SDS011;16889;67.864;24.990;2023-06-14T12:00:10;7.47;;;2.90;;
30062;SDS011;16889;67.864;24.990;2023-06-14T12:05:03;7.63;;;2.95;;
30062;SDS011;16889;67.864;24.990;2023-06-14T12:14:41;6.25;;;3.15;;
30062;SDS011;16889;67.864;24.990;2023-06-14T12:19:27;7.25;;;3.33;;
30062;SDS011;16889;67.864;24.990;2023-06-14T12:24:13;6.68;;;2.83;;
30062;SDS011;16889;67.864;24.990;2023-06-14T12:29:00;8.35;;;3.28;;
30062;SDS011;16889;67.864;24.990;2023-06-14T12:33:46;6.85;;;3.15;;
30062;SDS011;16889;67.864;24.990;2023-06-14T12:38:34;8.35;;;3.30;;
30062;SDS011;16889;67.864;24.990;2023-06-14T12:43:20;5.78;;;2.80;;
30062;SDS011;16889;67.864;24.990;2023-06-14T12:48:06;5.70;;;2.97;;
30062;SDS011;16889;67.864;24.990;2023-06-14T12:52:54;4.90;;;3.20;;
30062;SDS011;16889;67.864;24.990;2023-06-14T12:57:40;5.25;;;3.28;;
30062;SDS011;16889;67.864;24.990;2023-06-14T13:02:26;6.72;;;3.38;;
30062;SDS011;16889;67.864;24.990;2023-06-14T13:07:12;6.32;;;3.55;;
30062;SDS011;16889;67.864;24.990;2023-06-14T13:12:00;11.32;;;4.03;;
30062;SDS011;16889;67.864;24.990;2023-06-14T13:16:46;8.23;;;3.50;;
30062;SDS011;16889;67.864;24.990;2023-06-14T13:21:32;7.88;;;3.03;;
30062;SDS011;16889;67.864;24.990;2023-06-14T13:26:18;4.90;;;3.55;;
30062;SDS011;16889;67.864;24.990;2023-06-14T13:31:04;5.93;;;3.50;;
30062;SDS011;16889;67.864;24.990;2023-06-14T13:35:50;7.57;;;3.58;;
30062;SDS011;16889;67.864;24.990;2023-06-14T13:40:38;6.10;;;3.25;;
30062;SDS011;16889;67.864;24.990;2023-06-14T13:45:24;5.90;;;3.50;;
30062;SDS011;16889;67.864;24.990;2023-06-14T13:50:10;5.80;;;3.28;;
30062;SDS011;16889;67.864;24.990;2023-06-14T13:54:56;5.55;;;3.50;;
30062;SDS011;16889;67.864;24.990;2023-06-14T13:59:42;6.75;;;3.80;;
30062;SDS011;16889;67.864;24.990;2023-06-14T14:04:31;6.90;;;3.40;;
30062;SDS011;16889;67.864;24.990;2023-06-14T14:09:18;6.90;;;3.83;;
30062;SDS011;16889;67.864;24.990;2023-06-14T14:14:04;5.05;;;3.28;;
30062;SDS011;16889;67.864;24.990;2023-06-14T14:18:50;6.43;;;3.42;;
30062;SDS011;16889;67.864;24.990;2023-06-14T14:23:36;7.07;;;3.40;;
30062;SDS011;16889;67.864;24.990;2023-06-14T14:28:22;6.15;;;3.42;;
30062;SDS011;16889;67.864;24.990;2023-06-14T14:33:08;5.47;;;3.33;;
30062;SDS011;16889;67.864;24.990;2023-06-14T14:38:00;6.88;;;3.55;;
30062;SDS011;16889;67.864;24.990;2023-06-14T14:47:34;5.47;;;3.47;;
30062;SDS011;16889;67.864;24.990;2023-06-14T14:52:20;4.78;;;3.08;;
30062;SDS011;16889;67.864;24.990;2023-06-14T14:57:06;7.03;;;3.25;;
30062;SDS011;16889;67.864;24.990;2023-06-14T15:01:52;5.05;;;3.42;;
30062;SDS011;16889;67.864;24.990;2023-06-14T15:06:38;4.53;;;2.97;;
30062;SDS011;16889;67.864;24.990;2023-06-14T15:11:24;5.22;;;3.00;;
30062;SDS011;16889;67.864;24.990;2023-06-14T15:16:10;4.80;;;2.80;;
30062;SDS011;16889;67.864;24.990;2023-06-14T15:20:56;5.18;;;2.85;;
30062;SDS011;16889;67.864;24.990;2023-06-14T15:25:42;4.43;;;2.83;;
30062;SDS011;16889;67.864;24.990;2023-06-14T15:30:28;5.05;;;2.70;;
30062;SDS011;16889;67.864;24.990;2023-06-14T15:35:16;5.78;;;3.10;;
30062;SDS011;16889;67.864;24.990;2023-06-14T15:40:03;4.05;;;2.85;;
30062;SDS011;16889;67.864;24.990;2023-06-14T15:44:51;7.43;;;3.30;;
30062;SDS011;16889;67.864;24.990;2023-06-14T15:49:37;6.75;;;3.42;;
30062;SDS011;16889;67.864;24.990;2023-06-14T15:54:23;6.38;;;3.67;;
30062;SDS011;16889;67.864;24.990;2023-06-14T15:59:09;5.85;;;3.78;;
30062;SDS011;16889;67.864;24.990;2023-06-14T16:03:55;4.65;;;3.30;;
30062;SDS011;16889;67.864;24.990;2023-06-14T16:08:41;5.85;;;3.40;;
30062;SDS011;16889;67.864;24.990;2023-06-14T16:13:29;6.20;;;4.03;;
30062;SDS011;16889;67.864;24.990;2023-06-14T16:18:15;11.50;;;4.18;;
30062;SDS011;16889;67.864;24.990;2023-06-14T16:23:01;8.07;;;4.32;;
30062;SDS011;16889;67.864;24.990;2023-06-14T16:27:47;6.97;;;4.57;;
30062;SDS011;16889;67.864;24.990;2023-06-14T16:32:33;13.50;;;4.70;;
30062;SDS011;16889;67.864;24.990;2023-06-14T16:37:19;7.53;;;5.00;;
30062;SDS011;16889;67.864;24.990;2023-06-14T16:42:06;7.28;;;4.60;;
30062;SDS011;16889;67.864;24.990;2023-06-14T16:46:52;7.47;;;4.97;;
30062;SDS011;16889;67.864;24.990;2023-06-14T16:51:38;7.78;;;4.90;;
30062;SDS011;16889;67.864;24.990;2023-06-14T16:56:24;7.03;;;4.88;;
30062;SDS011;16889;67.864;24.990;2023-06-14T17:01:13;6.85;;;4.78;;
30062;SDS011;16889;67.864;24.990;2023-06-14T17:05:59;7.10;;;4.70;;
30062;SDS011;16889;67.864;24.990;2023-06-14T17:10:45;8.07;;;4.55;;
30062;SDS011;16889;67.864;24.990;2023-06-14T17:15:31;6.88;;;4.95;;
30062;SDS011;16889;67.864;24.990;2023-06-14T17:20:17;7.53;;;4.90;;
30062;SDS011;16889;67.864;24.990;2023-06-14T17:25:04;6.97;;;4.60;;
30062;SDS011;16889;67.864;24.990;2023-06-14T17:29:50;8.40;;;4.85;;
30062;SDS011;16889;67.864;24.990;2023-06-14T17:34:36;6.72;;;4.53;;
30062;SDS011;16889;67.864;24.990;2023-06-14T17:39:22;6.35;;;4.35;;
30062;SDS011;16889;67.864;24.990;2023-06-14T17:44:08;7.80;;;4.80;;
30062;SDS011;16889;67.864;24.990;2023-06-14T17:48:54;7.25;;;4.57;;
30062;SDS011;16889;67.864;24.990;2023-06-14T17:53:40;7.07;;;4.63;;
30062;SDS011;16889;67.864;24.990;2023-06-14T17:58:26;6.93;;;4.72;;
30062;SDS011;16889;67.864;24.990;2023-06-14T18:03:12;6.88;;;4.68;;
30062;SDS011;16889;67.864;24.990;2023-06-14T18:07:58;8.65;;;4.90;;
30062;SDS011;16889;67.864;24.990;2023-06-14T18:12:44;6.82;;;4.35;;
30062;SDS011;16889;67.864;24.990;2023-06-14T18:17:31;7.70;;;4.40;;
30062;SDS011;16889;67.864;24.990;2023-06-14T18:22:17;7.18;;;5.00;;
30062;SDS011;16889;67.864;24.990;2023-06-14T18:27:03;5.90;;;4.50;;
30062;SDS011;16889;67.864;24.990;2023-06-14T18:31:50;7.28;;;4.13;;
30062;SDS011;16889;67.864;24.990;2023-06-14T18:36:36;7.40;;;4.32;;
30062;SDS011;16889;67.864;24.990;2023-06-14T18:46:10;8.07;;;4.22;;
30062;SDS011;16889;67.864;24.990;2023-06-14T18:50:56;10.07;;;4.18;;
30062;SDS011;16889;67.864;24.990;2023-06-14T18:55:42;9.77;;;4.68;;
30062;SDS011;16889;67.864;24.990;2023-06-14T19:00:28;6.30;;;4.18;;
30062;SDS011;16889;67.864;24.990;2023-06-14T19:05:15;6.93;;;4.35;;
30062;SDS011;16889;67.864;24.990;2023-06-14T19:10:01;8.20;;;4.57;;
30062;SDS011;16889;67.864;24.990;2023-06-14T19:14:47;9.25;;;5.20;;
30062;SDS011;16889;67.864;24.990;2023-06-14T19:19:33;7.65;;;4.35;;
30062;SDS011;16889;67.864;24.990;2023-06-14T19:24:19;8.35;;;4.72;;
30062;SDS011;16889;67.864;24.990;2023-06-14T19:29:05;9.55;;;4.75;;
30062;SDS011;16889;67.864;24.990;2023-06-14T19:33:52;7.82;;;4.60;;
30062;SDS011;16889;67.864;24.990;2023-06-14T19:38:37;9.65;;;4.63;;
30062;SDS011;16889;67.864;24.990;2023-06-14T19:43:23;8.48;;;4.85;;
30062;SDS011;16889;67.864;24.990;2023-06-14T19:48:10;8.13;;;4.80;;
30062;SDS011;16889;67.864;24.990;2023-06-14T19:52:56;9.95;;;5.10;;
30062;SDS011;16889;67.864;24.990;2023-06-14T19:57:42;9.13;;;4.80;;
30062;SDS011;16889;67.864;24.990;2023-06-14T20:02:28;8.55;;;5.05;;
30062;SDS011;16889;67.864;24.990;2023-06-14T20:07:14;10.70;;;5.00;;
30062;SDS011;16889;67.864;24.990;2023-06-14T20:12:01;9.10;;;5.30;;
30062;SDS011;16889;67.864;24.990;2023-06-14T20:16:47;7.72;;;4.75;;
30062;SDS011;16889;67.864;24.990;2023-06-14T20:21:33;9.68;;;4.90;;
30062;SDS011;16889;67.864;24.990;2023-06-14T20:26:19;10.50;;;4.93;;
30062;SDS011;16889;67.864;24.990;2023-06-14T20:31:05;8.05;;;4.70;;
30062;SDS011;16889;67.864;24.990;2023-06-14T20:35:52;9.23;;;5.03;;
30062;SDS011;16889;67.864;24.990;2023-06-14T20:40:38;7.25;;;5.05;;
30062;SDS011;16889;67.864;24.990;2023-06-14T20:45:24;14.05;;;4.85;;
30062;SDS011;16889;67.864;24.990;2023-06-14T20:50:11;11.55;;;4.80;;
30062;SDS011;16889;67.864;24.990;2023-06-14T20:54:57;8.52;;;4.72;;
30062;SDS011;16889;67.864;24.990;2023-06-14T20:59:43;8.10;;;4.45;;
30062;SDS011;16889;67.864;24.990;2023-06-14T21:04:29;7.80;;;4.20;;
30062;SDS011;16889;67.864;24.990;2023-06-14T21:09:16;8.98;;;4.45;;
30062;SDS011;16889;67.864;24.990;2023-06-14T21:14:02;10.57;;;4.60;;
30062;SDS011;16889;67.864;24.990;2023-06-14T21:18:48;7.10;;;4.55;;
30062;SDS011;16889;67.864;24.990;2023-06-14T21:23:34;9.00;;;4.57;;
30062;SDS011;16889;67.864;24.990;2023-06-14T21:28:20;6.85;;;4.32;;
30062;SDS011;16889;67.864;24.990;2023-06-14T21:33:06;12.35;;;4.82;;
30062;SDS011;16889;67.864;24.990;2023-06-14T21:37:52;8.25;;;4.47;;
30062;SDS011;16889;67.864;24.990;2023-06-14T21:42:37;12.13;;;4.88;;
30062;SDS011;16889;67.864;24.990;2023-06-14T21:47:23;9.10;;;4.95;;
30062;SDS011;16889;67.864;24.990;2023-06-14T21:52:11;8.48;;;4.40;;
30062;SDS011;16889;67.864;24.990;2023-06-14T21:57:01;8.15;;;4.68;;
30062;SDS011;16889;67.864;24.990;2023-06-14T22:01:47;6.32;;;4.28;;
30062;SDS011;16889;67.864;24.990;2023-06-14T22:06:33;9.52;;;4.32;;
30062;SDS011;16889;67.864;24.990;2023-06-14T22:11:19;7.15;;;4.20;;
30062;SDS011;16889;67.864;24.990;2023-06-14T22:16:06;8.35;;;4.43;;
30062;SDS011;16889;67.864;24.990;2023-06-14T22:20:52;9.02;;;4.25;;
30062;SDS011;16889;67.864;24.990;2023-06-14T22:25:38;8.98;;;4.50;;
30062;SDS011;16889;67.864;24.990;2023-06-14T22:30:25;8.32;;;4.45;;
30062;SDS011;16889;67.864;24.990;2023-06-14T22:35:12;11.63;;;4.77;;
30062;SDS011;16889;67.864;24.990;2023-06-14T22:39:58;7.28;;;4.20;;
30062;SDS011;16889;67.864;24.990;2023-06-14T22:44:45;7.55;;;4.35;;
30062;SDS011;16889;67.864;24.990;2023-06-14T22:49:35;9.88;;;4.78;;
30062;SDS011;16889;67.864;24.990;2023-06-14T22:54:24;10.20;;;4.65;;
30062;SDS011;16889;67.864;24.990;2023-06-14T22:59:10;8.65;;;4.30;;
30062;SDS011;16889;67.864;24.990;2023-06-14T23:03:56;11.60;;;4.60;;
30062;SDS011;16889;67.864;24.990;2023-06-14T23:08:45;12.52;;;4.40;;
30062;SDS011;16889;67.864;24.990;2023-06-14T23:13:32;10.23;;;4.43;;
30062;SDS011;16889;67.864;24.990;2023-06-14T23:18:18;10.07;;;5.13;;
30062;SDS011;16889;67.864;24.990;2023-06-14T23:23:04;8.68;;;4.57;;
30062;SDS011;16889;67.864;24.990;2023-06-14T23:27:50;8.43;;;4.75;;
30062;SDS011;16889;67.864;24.990;2023-06-14T23:32:35;8.40;;;4.65;;
30062;SDS011;16889;67.864;24.990;2023-06-14T23:37:22;8.18;;;4.60;;
30062;SDS011;16889;67.864;24.990;2023-06-14T23:42:09;10.05;;;4.40;;
30062;SDS011;16889;67.864;24.990;2023-06-14T23:46:55;8.73;;;4.60;;
30062;SDS011;16889;67.864;24.990;2023-06-14T23:51:41;9.57;;;4.70;;
30062;SDS011;16889;67.864;24.990;2023-06-14T23:56:28;12.10;;;5.15;;
